createdAt,value
2023-05-10T00:01:21.872Z,90869.25
2023-05-10T00:03:48.289Z,90865.72
2023-05-10T00:06:14.732Z,90860.91
2023-05-10T00:08:40.997Z,90863.00
2023-05-10T00:11:07.283Z,90859.38
2023-05-10T00:13:33.583Z,90845.31
2023-05-10T00:15:59.943Z,90849.28
2023-05-10T00:18:26.236Z,90834.22
2023-05-10T00:20:52.522Z,90833.41
2023-05-10T00:23:18.837Z,90840.50
2023-05-10T00:25:45.222Z,90849.09
2023-05-10T00:28:11.524Z,90841.81
2023-05-10T00:30:37.814Z,90843.91
2023-05-10T00:33:04.172Z,90849.78
2023-05-10T00:35:30.567Z,90862.25
2023-05-10T00:37:56.852Z,90858.03
2023-05-10T00:40:23.137Z,90852.00
2023-05-10T00:42:49.469Z,90854.97
2023-05-10T00:45:15.846Z,90862.94
2023-05-10T00:47:42.202Z,90864.06
2023-05-10T00:50:09.722Z,90854.72
2023-05-10T00:52:36.020Z,90863.41
2023-05-10T00:55:02.305Z,90865.97
2023-05-10T00:57:28.599Z,90865.88
2023-05-10T00:59:54.893Z,90872.34
2023-05-10T01:02:21.242Z,90865.59
2023-05-10T01:04:48.216Z,90867.22
2023-05-10T01:07:14.538Z,90864.94
2023-05-10T01:09:40.858Z,90868.97
2023-05-10T01:12:08.231Z,90872.66
2023-05-10T01:14:35.298Z,90875.31
2023-05-10T01:17:01.585Z,90871.03
2023-05-10T01:19:28.130Z,90865.03
2023-05-10T01:21:54.403Z,90868.03
2023-05-10T01:24:27.332Z,90859.81
2023-05-10T01:26:53.602Z,90856.94
2023-05-10T01:29:25.682Z,90852.72
2023-05-10T01:32:04.604Z,90854.00
2023-05-10T01:34:39.991Z,90851.13
2023-05-10T01:37:07.294Z,90853.00
2023-05-10T01:39:34.728Z,90845.91
2023-05-10T01:42:01.265Z,90849.03
2023-05-10T01:44:30.865Z,90850.00
2023-05-10T01:47:14.191Z,90840.63
2023-05-10T01:49:47.466Z,90845.38
2023-05-10T01:52:14.125Z,90837.72
2023-05-10T01:54:42.520Z,90837.56
2023-05-10T01:57:10.725Z,90847.31
2023-05-10T01:59:37.915Z,90844.47
2023-05-10T02:02:04.196Z,90847.28
2023-05-10T02:04:30.740Z,90859.63
2023-05-10T02:06:57.062Z,90861.41
2023-05-10T02:09:23.336Z,90859.09
2023-05-10T02:11:49.655Z,90867.97
2023-05-10T02:14:16.228Z,90858.00
2023-05-10T02:16:42.724Z,90865.59
2023-05-10T02:19:09.921Z,90859.34
2023-05-10T02:21:36.200Z,90859.91
2023-05-10T02:24:02.686Z,90851.06
2023-05-10T02:26:28.993Z,90856.06
2023-05-10T02:28:55.708Z,90847.28
2023-05-10T02:31:22.075Z,90850.63
2023-05-10T02:33:48.395Z,90848.66
2023-05-10T02:36:14.721Z,90850.19
2023-05-10T02:38:41.399Z,90847.88
2023-05-10T02:41:08.096Z,90850.97
2023-05-10T02:43:34.642Z,90857.94
2023-05-10T02:46:00.984Z,90854.56
2023-05-10T02:48:27.431Z,90855.72
2023-05-10T02:50:53.723Z,90847.38
2023-05-10T02:53:21.845Z,90863.13
2023-05-10T02:55:50.081Z,90855.53
2023-05-10T02:58:16.493Z,90860.34
2023-05-10T03:00:42.837Z,90863.94
2023-05-10T03:03:09.336Z,90863.03
2023-05-10T03:05:35.669Z,90856.47
2023-05-10T03:08:05.087Z,90864.81
2023-05-10T03:10:31.730Z,90859.78
2023-05-10T03:13:02.817Z,90857.97
2023-05-10T03:15:39.103Z,90858.84
2023-05-10T03:18:13.928Z,90857.81
2023-05-10T03:20:42.482Z,90860.63
2023-05-10T03:23:12.161Z,90857.94
2023-05-10T03:25:38.461Z,90867.84
2023-05-10T03:28:04.759Z,90869.66
2023-05-10T03:30:31.043Z,90874.41
2023-05-10T03:32:57.967Z,90865.94
2023-05-10T03:35:24.337Z,90865.88
2023-05-10T03:37:50.636Z,90861.25
2023-05-10T03:40:17.056Z,90854.97
2023-05-10T03:42:43.577Z,90847.78
2023-05-10T03:45:10.620Z,90852.00
2023-05-10T03:47:36.935Z,90848.47
2023-05-10T03:50:03.394Z,90853.47
2023-05-10T03:52:29.774Z,90850.47
2023-05-10T03:54:56.056Z,90842.88
2023-05-10T03:57:22.332Z,90843.66
2023-05-10T03:59:48.605Z,90834.28
2023-05-10T04:02:14.973Z,90834.66
2023-05-10T04:04:41.377Z,90838.03
2023-05-10T04:07:07.708Z,90836.97
2023-05-10T04:09:34.015Z,90838.91
2023-05-10T04:12:01.255Z,90833.09
2023-05-10T04:14:27.572Z,90832.94
2023-05-10T04:16:53.883Z,90834.91
2023-05-10T04:19:20.181Z,90829.78
2023-05-10T04:21:46.609Z,90828.38
2023-05-10T04:24:13.570Z,90827.72
2023-05-10T04:26:39.918Z,90833.56
2023-05-10T04:29:06.201Z,90827.84
2023-05-10T04:31:32.546Z,90830.19
2023-05-10T04:33:58.828Z,90841.69
2023-05-10T04:36:25.115Z,90835.19
2023-05-10T04:38:51.386Z,90835.50
2023-05-10T04:41:17.673Z,90828.88
2023-05-10T04:43:44.040Z,90828.66
2023-05-10T04:46:10.473Z,90829.69
2023-05-10T04:48:36.832Z,90833.22
2023-05-10T04:51:04.780Z,90827.63
2023-05-10T04:53:31.076Z,90837.38
2023-05-10T04:55:57.373Z,90841.28
2023-05-10T04:58:23.673Z,90834.19
2023-05-10T05:00:49.981Z,90836.38
2023-05-10T05:03:16.647Z,90831.28
2023-05-10T05:05:43.063Z,90837.91
2023-05-10T05:08:09.850Z,90839.66
2023-05-10T05:10:36.146Z,90832.84
2023-05-10T05:13:02.488Z,90845.13
2023-05-10T05:15:28.882Z,90846.34
2023-05-10T05:17:55.336Z,90844.97
2023-05-10T05:20:22.136Z,90847.09
2023-05-10T05:22:48.433Z,90845.97
2023-05-10T05:25:16.006Z,90844.56
2023-05-10T05:27:42.287Z,90850.81
2023-05-10T05:30:08.834Z,90853.97
2023-05-10T05:32:35.190Z,90849.66
2023-05-10T05:35:01.526Z,90858.81
2023-05-10T05:37:27.805Z,90857.44
2023-05-10T05:39:55.797Z,90858.94
2023-05-10T05:42:22.129Z,90859.94
2023-05-10T05:44:48.462Z,90860.75
2023-05-10T05:47:14.882Z,90855.31
2023-05-10T05:49:41.418Z,90864.16
2023-05-10T05:52:07.772Z,90870.72
2023-05-10T05:54:34.165Z,90868.56
2023-05-10T05:57:01.437Z,90861.78
2023-05-10T05:59:28.088Z,90857.56
2023-05-10T06:01:54.429Z,90859.06
2023-05-10T06:04:20.913Z,90858.34
2023-05-10T06:06:47.276Z,90856.56
2023-05-10T06:09:13.648Z,90868.72
2023-05-10T06:11:40.012Z,90864.66
2023-05-10T06:14:07.977Z,90870.69
2023-05-10T06:16:37.042Z,90872.13
2023-05-10T06:19:03.584Z,90878.84
2023-05-10T06:21:29.969Z,90872.75
2023-05-10T06:23:56.271Z,90878.69
2023-05-10T06:26:22.560Z,90872.88
2023-05-10T06:28:48.827Z,90868.03
2023-05-10T06:31:15.187Z,90866.16
2023-05-10T06:33:41.685Z,90868.72
2023-05-10T06:36:08.115Z,90871.25
2023-05-10T06:38:34.559Z,90866.44
2023-05-10T06:41:01.550Z,90866.59
2023-05-10T06:43:29.481Z,90867.16
2023-05-10T06:45:55.857Z,90862.03
2023-05-10T06:48:22.275Z,90873.59
2023-05-10T06:50:48.593Z,90862.75
2023-05-10T06:53:14.894Z,90870.22
2023-05-10T06:55:41.216Z,90865.13
2023-05-10T06:58:07.565Z,90863.66
2023-05-10T07:00:33.885Z,90874.03
2023-05-10T07:03:00.319Z,90862.44
2023-05-10T07:05:28.843Z,90876.47
2023-05-10T07:07:55.425Z,90875.31
2023-05-10T07:10:21.724Z,90872.16
2023-05-10T07:12:48.113Z,90877.25
2023-05-10T07:15:14.644Z,90869.94
2023-05-10T07:17:43.264Z,90871.81
2023-05-10T07:20:11.332Z,90873.50
2023-05-10T07:22:37.649Z,90871.25
2023-05-10T07:25:04.058Z,90869.63
2023-05-10T07:27:30.429Z,90871.53
2023-05-10T07:29:57.493Z,90867.78
2023-05-10T07:32:24.072Z,90871.31
2023-05-10T07:34:50.453Z,90874.38
2023-05-10T07:37:16.756Z,90866.41
2023-05-10T07:39:43.038Z,90862.16
2023-05-10T07:42:09.566Z,90873.13
2023-05-10T07:44:35.917Z,90874.72
2023-05-10T07:47:02.232Z,90873.13
2023-05-10T07:49:28.523Z,90877.31
2023-05-10T07:51:54.864Z,90883.75
2023-05-10T07:54:21.475Z,90879.00
2023-05-10T07:56:48.129Z,90879.66
2023-05-10T07:59:18.016Z,90881.38
2023-05-10T08:01:44.322Z,90879.28
2023-05-10T08:04:10.786Z,90876.47
2023-05-10T08:06:37.146Z,90875.34
2023-05-10T08:09:03.505Z,90875.91
2023-05-10T08:11:29.855Z,90868.53
2023-05-10T08:13:56.186Z,90877.44
2023-05-10T08:16:22.595Z,90872.28
2023-05-10T08:18:50.012Z,90866.63
2023-05-10T08:21:16.576Z,90869.38
2023-05-10T08:23:44.529Z,90878.41
2023-05-10T08:26:11.316Z,90874.53
2023-05-10T08:28:37.651Z,90874.69
2023-05-10T08:31:04.020Z,90861.75
2023-05-10T08:33:30.460Z,90860.09
2023-05-10T08:35:56.753Z,90863.53
2023-05-10T08:38:23.082Z,90864.16
2023-05-10T08:40:50.372Z,90866.41
2023-05-10T08:43:16.855Z,90861.69
2023-05-10T08:45:46.145Z,90862.47
2023-05-10T08:48:12.770Z,90868.75
2023-05-10T08:50:42.296Z,90869.41
2023-05-10T08:53:11.962Z,90863.97
2023-05-10T08:55:39.410Z,90860.06
2023-05-10T08:58:06.011Z,90860.75
2023-05-10T09:00:32.311Z,90850.44
2023-05-10T09:02:58.972Z,90854.66
2023-05-10T09:05:25.475Z,90856.06
2023-05-10T09:07:51.818Z,90854.41
2023-05-10T09:10:18.359Z,90851.88
2023-05-10T09:12:45.056Z,90843.09
2023-05-10T09:15:11.428Z,90841.34
2023-05-10T09:17:38.076Z,90840.72
2023-05-10T09:20:04.956Z,90845.56
2023-05-10T09:22:31.529Z,90853.94
2023-05-10T09:25:10.119Z,90853.41
2023-05-10T09:27:36.587Z,90843.63
2023-05-10T09:30:03.476Z,90854.56
2023-05-10T09:32:45.935Z,90845.44
2023-05-10T09:35:12.329Z,90849.91
2023-05-10T09:37:42.400Z,90848.97
2023-05-10T09:40:09.518Z,90852.16
2023-05-10T09:42:36.030Z,90848.13
2023-05-10T09:45:03.386Z,90846.03
2023-05-10T09:47:29.831Z,90855.94
2023-05-10T09:49:58.783Z,90860.59
2023-05-10T09:52:25.061Z,90857.84
2023-05-10T09:54:54.698Z,90854.56
2023-05-10T09:57:21.825Z,90862.28
2023-05-10T09:59:48.185Z,90856.28
2023-05-10T10:02:14.486Z,90854.84
2023-05-10T10:04:41.644Z,90845.84
2023-05-10T10:07:07.972Z,90856.03
2023-05-10T10:09:34.668Z,90848.59
2023-05-10T10:12:01.157Z,90850.47
2023-05-10T10:14:27.460Z,90844.16
2023-05-10T10:17:06.593Z,90841.72
2023-05-10T10:19:34.465Z,90838.94
2023-05-10T10:22:06.465Z,90841.63
2023-05-10T10:24:32.783Z,90844.00
2023-05-10T10:27:05.618Z,90840.94
2023-05-10T10:29:45.318Z,90835.25
2023-05-10T10:32:21.348Z,90827.25
2023-05-10T10:34:47.660Z,90834.88
2023-05-10T10:37:14.076Z,90843.78
2023-05-10T10:39:40.376Z,90833.78
2023-05-10T10:42:06.706Z,90832.75
2023-05-10T10:44:36.075Z,90827.03
2023-05-10T10:47:26.569Z,90827.50
2023-05-10T10:49:53.709Z,90816.38
2023-05-10T10:52:24.223Z,90815.75
2023-05-10T10:54:51.313Z,90817.44
2023-05-10T10:57:20.002Z,90813.63
2023-05-10T10:59:47.164Z,90812.56
2023-05-10T11:02:32.222Z,90799.91
2023-05-10T11:04:58.557Z,90810.22
2023-05-10T11:07:25.434Z,90810.53
2023-05-10T11:09:52.562Z,90823.16
2023-05-10T11:12:18.840Z,90821.19
2023-05-10T11:14:50.539Z,90814.50
2023-05-10T11:17:23.314Z,90815.44
2023-05-10T11:20:10.014Z,90823.75
2023-05-10T11:22:54.594Z,90818.84
2023-05-10T11:25:21.226Z,90816.19
2023-05-10T11:27:50.602Z,90818.81
2023-05-10T11:30:17.117Z,90813.72
2023-05-10T11:32:43.698Z,90807.59
2023-05-10T11:35:10.777Z,90808.59
2023-05-10T11:37:37.098Z,90804.69
2023-05-10T11:40:04.060Z,90796.34
2023-05-10T11:42:30.968Z,90801.47
2023-05-10T11:44:57.262Z,90806.41
2023-05-10T11:47:23.578Z,90797.19
2023-05-10T11:49:50.053Z,90798.94
2023-05-10T11:52:16.349Z,90796.34
2023-05-10T11:54:47.140Z,90794.94
2023-05-10T11:57:13.538Z,90807.09
2023-05-10T11:59:41.739Z,90801.75
2023-05-10T12:02:09.407Z,90796.97
2023-05-10T12:04:35.799Z,90802.97
2023-05-10T12:07:02.204Z,90798.41
2023-05-10T12:09:42.687Z,90800.38
2023-05-10T12:12:09.795Z,90802.53
2023-05-10T12:14:36.253Z,90814.59
2023-05-10T12:17:02.518Z,90800.22
2023-05-10T12:19:28.794Z,90795.00
2023-05-10T12:21:55.152Z,90797.25
2023-05-10T12:24:22.492Z,90806.31
2023-05-10T12:26:49.306Z,90808.75
2023-05-10T12:29:16.731Z,90807.22
2023-05-10T12:31:55.384Z,90809.31
2023-05-10T12:34:24.775Z,90823.44
2023-05-10T12:36:51.869Z,90812.66
2023-05-10T12:39:18.188Z,90817.72
2023-05-10T12:41:44.478Z,90812.41
2023-05-10T12:44:11.053Z,90812.19
2023-05-10T12:46:37.352Z,90827.47
2023-05-10T12:49:09.017Z,90815.00
2023-05-10T12:51:36.165Z,90826.19
2023-05-10T12:54:03.280Z,90808.63
2023-05-10T12:56:29.581Z,90820.09
2023-05-10T12:58:55.918Z,90811.22
2023-05-10T13:01:22.364Z,90817.63
2023-05-10T13:03:48.740Z,90808.38
2023-05-10T13:06:15.070Z,90812.22
2023-05-10T13:08:41.366Z,90822.94
2023-05-10T13:11:07.650Z,90805.78
2023-05-10T13:13:33.925Z,90804.41
2023-05-10T13:16:00.317Z,90818.66
2023-05-10T13:18:27.347Z,90818.28
2023-05-10T13:20:54.471Z,90816.19
2023-05-10T13:23:21.001Z,90813.09
2023-05-10T13:25:47.347Z,90811.44
2023-05-10T13:28:13.669Z,90813.91
2023-05-10T13:30:40.026Z,90807.34
2023-05-10T13:33:06.544Z,90824.22
2023-05-10T13:35:32.938Z,90801.16
2023-05-10T13:37:59.462Z,90813.47
2023-05-10T13:40:25.848Z,90807.13
2023-05-10T13:42:52.190Z,90807.66
2023-05-10T13:45:18.825Z,90808.50
2023-05-10T13:47:45.396Z,90801.22
2023-05-10T13:50:11.757Z,90799.72
2023-05-10T13:52:38.300Z,90791.88
2023-05-10T13:55:04.853Z,90791.91
2023-05-10T13:57:31.432Z,90804.19
2023-05-10T13:59:58.284Z,90792.50
2023-05-10T14:02:25.497Z,90798.94
2023-05-10T14:04:52.002Z,90796.00
2023-05-10T14:07:18.653Z,90797.63
2023-05-10T14:09:44.949Z,90804.00
2023-05-10T14:12:11.356Z,90791.28
2023-05-10T14:14:37.673Z,90801.81
2023-05-10T14:17:03.996Z,90794.72
2023-05-10T14:19:33.372Z,90792.09
2023-05-10T14:21:59.669Z,90800.28
2023-05-10T14:24:26.139Z,90811.53
2023-05-10T14:26:54.636Z,90805.97
2023-05-10T14:29:21.423Z,90804.47
2023-05-10T14:31:47.825Z,90796.72
2023-05-10T14:34:14.108Z,90798.78
2023-05-10T14:36:41.091Z,90809.22
2023-05-10T14:39:07.696Z,90798.09
2023-05-10T14:41:34.011Z,90813.63
2023-05-10T14:44:00.300Z,90810.47
2023-05-10T14:46:27.462Z,90814.63
2023-05-10T14:48:53.890Z,90814.31
2023-05-10T14:51:22.703Z,90802.69
2023-05-10T14:53:52.025Z,90816.59
2023-05-10T14:56:18.359Z,90825.78
2023-05-10T14:58:44.686Z,90816.88
2023-05-10T15:01:11.618Z,90822.38
2023-05-10T15:03:38.635Z,90816.97
2023-05-10T15:06:05.984Z,90818.13
2023-05-10T15:08:32.261Z,90825.06
2023-05-10T15:10:58.617Z,90814.38
2023-05-10T15:13:24.919Z,90820.41
2023-05-10T15:15:51.205Z,90812.84
2023-05-10T15:18:17.761Z,90809.19
2023-05-10T15:20:44.115Z,90812.84
2023-05-10T15:23:10.405Z,90813.75
2023-05-10T15:25:38.074Z,90814.00
2023-05-10T15:28:04.860Z,90818.03
2023-05-10T15:30:31.149Z,90816.75
2023-05-10T15:32:57.607Z,90832.38
2023-05-10T15:35:23.927Z,90825.97
2023-05-10T15:37:50.371Z,90816.09
2023-05-10T15:40:16.672Z,90823.44
2023-05-10T15:42:42.948Z,90817.72
2023-05-10T15:45:09.590Z,90832.09
2023-05-10T15:47:36.003Z,90825.25
2023-05-10T15:50:02.331Z,90832.06
2023-05-10T15:52:28.624Z,90843.69
2023-05-10T15:54:55.207Z,90839.25
2023-05-10T15:57:21.541Z,90857.31
2023-05-10T15:59:47.834Z,90849.28
2023-05-10T16:02:14.404Z,90847.06
2023-05-10T16:04:40.704Z,90860.66
2023-05-10T16:07:07.010Z,90850.34
2023-05-10T16:09:33.306Z,90864.38
2023-05-10T16:11:59.612Z,90863.44
2023-05-10T16:14:26.050Z,90870.56
2023-05-10T16:16:52.506Z,90864.91
2023-05-10T16:19:18.991Z,90864.94
2023-05-10T16:21:45.356Z,90857.06
2023-05-10T16:24:11.638Z,90859.63
2023-05-10T16:26:40.874Z,90865.16
2023-05-10T16:29:07.957Z,90864.84
2023-05-10T16:31:34.282Z,90865.41
2023-05-10T16:34:00.698Z,90859.75
2023-05-10T16:36:27.476Z,90854.28
2023-05-10T16:38:53.922Z,90860.91
2023-05-10T16:41:21.243Z,90857.38
2023-05-10T16:43:47.550Z,90854.63
2023-05-10T16:46:13.855Z,90861.09
2023-05-10T16:48:40.445Z,90861.00
2023-05-10T16:51:06.812Z,90859.97
2023-05-10T16:53:33.730Z,90852.66
2023-05-10T16:56:00.075Z,90859.03
2023-05-10T16:58:26.458Z,90858.97
2023-05-10T17:00:53.026Z,90860.66
2023-05-10T17:03:19.565Z,90859.28
2023-05-10T17:05:46.002Z,90864.94
2023-05-10T17:08:12.310Z,90867.03
2023-05-10T17:10:41.677Z,90870.66
2023-05-10T17:13:10.056Z,90879.56
2023-05-10T17:15:37.599Z,90873.44
2023-05-10T17:18:04.630Z,90872.66
2023-05-10T17:20:30.958Z,90868.41
2023-05-10T17:22:57.243Z,90879.31
2023-05-10T17:25:23.522Z,90880.91
2023-05-10T17:27:49.818Z,90881.34
2023-05-10T17:30:16.858Z,90878.88
2023-05-10T17:32:43.356Z,90878.72
2023-05-10T17:35:09.789Z,90883.16
2023-05-10T17:37:36.119Z,90885.94
2023-05-10T17:40:03.818Z,90889.44
2023-05-10T17:42:30.123Z,90887.09
2023-05-10T17:44:56.424Z,90890.06
2023-05-10T17:47:22.822Z,90883.69
2023-05-10T17:49:49.123Z,90894.69
2023-05-10T17:52:15.424Z,90888.94
2023-05-10T17:54:41.732Z,90899.50
2023-05-10T17:57:08.043Z,90896.34
2023-05-10T17:59:34.341Z,90898.09
2023-05-10T18:02:01.167Z,90900.28
2023-05-10T18:04:27.697Z,90904.44
2023-05-10T18:07:00.975Z,90900.66
2023-05-10T18:09:30.444Z,90902.88
2023-05-10T18:11:56.736Z,90902.50
2023-05-10T18:14:39.081Z,90902.00
2023-05-10T18:17:07.205Z,90904.09
2023-05-10T18:19:33.590Z,90913.63
2023-05-10T18:21:59.907Z,90904.94
2023-05-10T18:24:37.676Z,90909.66
2023-05-10T18:27:05.859Z,90909.69
2023-05-10T18:29:32.236Z,90914.63
2023-05-10T18:31:58.507Z,90913.56
2023-05-10T18:34:24.843Z,90914.00
2023-05-10T18:36:51.347Z,90909.47
2023-05-10T18:39:18.344Z,90917.63
2023-05-10T18:41:45.603Z,90925.38
2023-05-10T18:44:11.902Z,90934.81
2023-05-10T18:46:38.343Z,90932.56
2023-05-10T18:49:05.734Z,90932.09
2023-05-10T18:51:32.105Z,90929.06
2023-05-10T18:53:58.453Z,90935.25
2023-05-10T18:56:24.816Z,90936.31
2023-05-10T18:58:51.266Z,90935.47
2023-05-10T19:01:17.814Z,90932.06
2023-05-10T19:03:44.172Z,90938.53
2023-05-10T19:06:10.914Z,90934.44
2023-05-10T19:08:37.379Z,90944.09
2023-05-10T19:11:03.716Z,90942.28
2023-05-10T19:13:30.242Z,90938.78
2023-05-10T19:16:04.874Z,90943.72
2023-05-10T19:18:32.700Z,90952.25
2023-05-10T19:21:02.362Z,90952.78
2023-05-10T19:23:28.665Z,90958.09
2023-05-10T19:25:54.971Z,90955.16
2023-05-10T19:28:21.493Z,90958.25
2023-05-10T19:30:49.547Z,90963.44
2023-05-10T19:33:17.295Z,90957.66
2023-05-10T19:35:43.694Z,90967.44
2023-05-10T19:38:10.118Z,90970.03
2023-05-10T19:40:36.439Z,90966.88
2023-05-10T19:43:03.006Z,90974.19
2023-05-10T19:45:29.346Z,90974.88
2023-05-10T19:47:56.247Z,90976.84
2023-05-10T19:50:22.562Z,90973.09
2023-05-10T19:52:49.445Z,90979.75
2023-05-10T19:55:24.888Z,90979.16
2023-05-10T19:57:51.694Z,90988.53
2023-05-10T20:00:17.966Z,90983.81
2023-05-10T20:02:44.338Z,90978.25
2023-05-10T20:05:10.629Z,90985.63
2023-05-10T20:07:37.119Z,90992.84
2023-05-10T20:10:03.936Z,91000.56
2023-05-10T20:12:30.258Z,90992.47
2023-05-10T20:14:56.569Z,90989.22
2023-05-10T20:17:22.895Z,90994.56
2023-05-10T20:19:49.172Z,90994.44
2023-05-10T20:22:15.448Z,90999.31
2023-05-10T20:24:41.877Z,90989.53
2023-05-10T20:27:08.222Z,90987.00
2023-05-10T20:29:34.514Z,91000.72
2023-05-10T20:32:00.987Z,90998.47
2023-05-10T20:34:27.263Z,90997.91
2023-05-10T20:36:53.557Z,90987.13
2023-05-10T20:39:19.846Z,90989.59
2023-05-10T20:41:46.826Z,90979.72
2023-05-10T20:44:13.118Z,90980.78
2023-05-10T20:46:39.502Z,90984.28
2023-05-10T20:49:06.000Z,90968.13
2023-05-10T20:51:33.168Z,90969.88
2023-05-10T20:54:01.545Z,90972.59
2023-05-10T20:56:27.829Z,90973.84
2023-05-10T20:58:54.136Z,90979.09
2023-05-10T21:01:20.522Z,90990.09
2023-05-10T21:03:46.846Z,90982.81
2023-05-10T21:06:13.115Z,90978.56
2023-05-10T21:08:39.393Z,90971.53
2023-05-10T21:11:05.772Z,90976.41
2023-05-10T21:13:32.412Z,90970.38
2023-05-10T21:15:58.756Z,90980.56
2023-05-10T21:18:25.329Z,90976.41
2023-05-10T21:20:51.746Z,90978.38
2023-05-10T21:23:18.087Z,90975.31
2023-05-10T21:25:44.364Z,90973.00
2023-05-10T21:28:10.663Z,90981.69
2023-05-10T21:30:36.943Z,90983.09
2023-05-10T21:33:03.484Z,90978.09
2023-05-10T21:35:30.001Z,90982.53
2023-05-10T21:37:56.414Z,90986.75
2023-05-10T21:40:22.766Z,90984.78
2023-05-10T21:42:49.405Z,90992.91
2023-05-10T21:45:16.303Z,90992.19
2023-05-10T21:47:42.627Z,90985.34
2023-05-10T21:50:10.331Z,90986.19
2023-05-10T21:52:37.033Z,90995.84
2023-05-10T21:55:04.251Z,91008.81
2023-05-10T21:57:30.694Z,90992.63
2023-05-10T21:59:56.955Z,90990.91
2023-05-10T22:02:23.421Z,90997.78
2023-05-10T22:04:50.343Z,91001.41
2023-05-10T22:07:16.912Z,90999.19
2023-05-10T22:09:43.568Z,91001.41
2023-05-10T22:12:09.880Z,90990.75
2023-05-10T22:14:36.162Z,90986.69
2023-05-10T22:17:02.478Z,90999.31
2023-05-10T22:19:28.830Z,90989.69
2023-05-10T22:21:55.336Z,90989.81
2023-05-10T22:24:21.746Z,90988.38
2023-05-10T22:26:48.053Z,90987.22
2023-05-10T22:29:14.363Z,90988.47
2023-05-10T22:31:40.881Z,90988.25
2023-05-10T22:34:07.355Z,91000.16
2023-05-10T22:36:33.653Z,91001.59
2023-05-10T22:38:59.964Z,90997.03
2023-05-10T22:41:26.370Z,90991.22
2023-05-10T22:43:52.652Z,90988.41
2023-05-10T22:46:19.025Z,90981.97
2023-05-10T22:48:45.350Z,90993.31
2023-05-10T22:51:11.932Z,90982.31
2023-05-10T22:53:38.224Z,90981.69
2023-05-10T22:56:04.535Z,90976.53
2023-05-10T22:58:31.064Z,90984.22
2023-05-10T23:00:57.359Z,90981.31
2023-05-10T23:03:23.719Z,90991.78
2023-05-10T23:05:50.034Z,90999.44
2023-05-10T23:08:16.446Z,90993.00
2023-05-10T23:10:42.770Z,90995.13
2023-05-10T23:13:09.117Z,90995.97
2023-05-10T23:15:36.169Z,90991.75
2023-05-10T23:18:02.571Z,90993.31
2023-05-10T23:20:28.914Z,90989.69
2023-05-10T23:22:56.141Z,90988.41
2023-05-10T23:25:22.586Z,90980.44
2023-05-10T23:27:48.872Z,90982.38
2023-05-10T23:30:15.262Z,90981.28
2023-05-10T23:32:41.607Z,90980.59
2023-05-10T23:35:08.302Z,90980.59
2023-05-10T23:37:34.695Z,90980.22
2023-05-10T23:40:01.877Z,90983.56
2023-05-10T23:42:28.209Z,90980.47
2023-05-10T23:44:54.484Z,90981.91
2023-05-10T23:47:20.914Z,90972.78
2023-05-10T23:49:47.274Z,90973.63
2023-05-10T23:52:13.964Z,90973.47
2023-05-10T23:54:40.267Z,90971.53
2023-05-10T23:57:06.605Z,90969.16
2023-05-10T23:59:32.907Z,90961.50
